sensor_id;sensor_type;location;lat;lon;timestamp;temperature;humidity
46932;DHT22;32670;51.464;11.964;2023-02-12T00:01:12;20.70;51.40
46932;DHT22;32670;51.464;11.964;2023-02-12T00:03:37;20.80;51.60
46932;DHT22;32670;51.464;11.964;2023-02-12T00:06:03;20.80;51.70
46932;DHT22;32670;51.464;11.964;2023-02-12T00:08:29;20.80;51.60
46932;DHT22;32670;51.464;11.964;2023-02-12T00:10:54;20.80;51.60
46932;DHT22;32670;51.464;11.964;2023-02-12T00:13:20;20.80;51.80
46932;DHT22;32670;51.464;11.964;2023-02-12T00:15:45;20.80;51.90
46932;DHT22;32670;51.464;11.964;2023-02-12T00:18:11;20.80;51.80
46932;DHT22;32670;51.464;11.964;2023-02-12T00:20:37;20.80;51.80
46932;DHT22;32670;51.464;11.964;2023-02-12T00:23:04;20.80;51.70
46932;DHT22;32670;51.464;11.964;2023-02-12T00:25:29;20.80;51.70
46932;DHT22;32670;51.464;11.964;2023-02-12T00:27:55;20.80;51.70
46932;DHT22;32670;51.464;11.964;2023-02-12T00:30:20;20.80;51.70
46932;DHT22;32670;51.464;11.964;2023-02-12T00:32:46;20.80;51.70
46932;DHT22;32670;51.464;11.964;2023-02-12T00:35:12;20.80;51.70
46932;DHT22;32670;51.464;11.964;2023-02-12T00:37:37;20.80;51.70
46932;DHT22;32670;51.464;11.964;2023-02-12T00:40:04;20.80;51.70
46932;DHT22;32670;51.464;11.964;2023-02-12T00:42:30;20.80;51.70
46932;DHT22;32670;51.464;11.964;2023-02-12T00:44:55;20.80;51.80
46932;DHT22;32670;51.464;11.964;2023-02-12T00:47:20;20.80;51.70
46932;DHT22;32670;51.464;11.964;2023-02-12T00:49:46;20.80;51.90
46932;DHT22;32670;51.464;11.964;2023-02-12T00:52:11;20.90;52.20
46932;DHT22;32670;51.464;11.964;2023-02-12T00:54:37;20.90;52.00
46932;DHT22;32670;51.464;11.964;2023-02-12T00:57:02;20.90;52.00
46932;DHT22;32670;51.464;11.964;2023-02-12T00:59:28;20.90;52.10
46932;DHT22;32670;51.464;11.964;2023-02-12T01:01:54;20.90;51.90
46932;DHT22;32670;51.464;11.964;2023-02-12T01:04:21;20.90;52.00
46932;DHT22;32670;51.464;11.964;2023-02-12T01:06:47;20.90;51.80
46932;DHT22;32670;51.464;11.964;2023-02-12T01:09:12;20.90;51.70
46932;DHT22;32670;51.464;11.964;2023-02-12T01:11:38;20.90;52.00
46932;DHT22;32670;51.464;11.964;2023-02-12T01:14:04;21.00;51.90
46932;DHT22;32670;51.464;11.964;2023-02-12T01:16:30;20.90;51.80
46932;DHT22;32670;51.464;11.964;2023-02-12T01:19:01;20.90;51.90
46932;DHT22;32670;51.464;11.964;2023-02-12T01:21:29;20.90;51.90
46932;DHT22;32670;51.464;11.964;2023-02-12T01:23:56;21.00;52.00
46932;DHT22;32670;51.464;11.964;2023-02-12T01:26:22;21.00;52.20
46932;DHT22;32670;51.464;11.964;2023-02-12T01:28:53;20.90;51.90
46932;DHT22;32670;51.464;11.964;2023-02-12T01:31:23;21.00;52.00
46932;DHT22;32670;51.464;11.964;2023-02-12T01:33:54;20.90;51.90
46932;DHT22;32670;51.464;11.964;2023-02-12T01:36:21;21.00;52.10
46932;DHT22;32670;51.464;11.964;2023-02-12T01:38:47;21.00;52.00
46932;DHT22;32670;51.464;11.964;2023-02-12T01:41:22;20.90;52.00
46932;DHT22;32670;51.464;11.964;2023-02-12T01:44:12;21.00;52.20
46932;DHT22;32670;51.464;11.964;2023-02-12T01:46:38;21.00;52.20
46932;DHT22;32670;51.464;11.964;2023-02-12T01:49:07;20.90;52.10
46932;DHT22;32670;51.464;11.964;2023-02-12T01:51:34;21.00;52.20
46932;DHT22;32670;51.464;11.964;2023-02-12T01:54:04;21.00;52.30
46932;DHT22;32670;51.464;11.964;2023-02-12T01:56:30;21.00;52.10
46932;DHT22;32670;51.464;11.964;2023-02-12T01:58:57;21.00;52.20
46932;DHT22;32670;51.464;11.964;2023-02-12T02:01:26;21.00;52.40
46932;DHT22;32670;51.464;11.964;2023-02-12T02:03:56;21.00;52.50
46932;DHT22;32670;51.464;11.964;2023-02-12T02:06:30;21.00;52.60
46932;DHT22;32670;51.464;11.964;2023-02-12T02:08:57;21.00;52.90
46932;DHT22;32670;51.464;11.964;2023-02-12T02:11:23;21.00;52.80
46932;DHT22;32670;51.464;11.964;2023-02-12T02:14:07;21.00;52.60
46932;DHT22;32670;51.464;11.964;2023-02-12T02:17:32;21.00;52.70
46932;DHT22;32670;51.464;11.964;2023-02-12T02:20:28;21.00;52.80
46932;DHT22;32670;51.464;11.964;2023-02-12T02:24:19;21.10;52.80
46932;DHT22;32670;51.464;11.964;2023-02-12T02:29:03;21.10;52.80
46932;DHT22;32670;51.464;11.964;2023-02-12T02:31:42;21.10;52.80
46932;DHT22;32670;51.464;11.964;2023-02-12T02:39:46;21.10;52.80
46932;DHT22;32670;51.464;11.964;2023-02-12T02:42:26;21.10;52.70
46932;DHT22;32670;51.464;11.964;2023-02-12T02:45:01;21.10;52.80
46932;DHT22;32670;51.464;11.964;2023-02-12T02:47:40;21.10;52.70
46932;DHT22;32670;51.464;11.964;2023-02-12T02:50:11;21.10;52.90
46932;DHT22;32670;51.464;11.964;2023-02-12T02:52:47;21.10;52.90
46932;DHT22;32670;51.464;11.964;2023-02-12T02:55:17;21.10;52.70
46932;DHT22;32670;51.464;11.964;2023-02-12T02:57:59;21.10;52.90
46932;DHT22;32670;51.464;11.964;2023-02-12T03:00:38;21.10;52.90
46932;DHT22;32670;51.464;11.964;2023-02-12T03:03:28;21.10;53.00
46932;DHT22;32670;51.464;11.964;2023-02-12T03:06:01;21.10;53.20
46932;DHT22;32670;51.464;11.964;2023-02-12T03:08:35;21.10;52.60
46932;DHT22;32670;51.464;11.964;2023-02-12T03:11:16;21.20;52.60
46932;DHT22;32670;51.464;11.964;2023-02-12T03:13:48;21.20;53.20
46932;DHT22;32670;51.464;11.964;2023-02-12T03:16:26;21.20;53.10
46932;DHT22;32670;51.464;11.964;2023-02-12T03:19:05;21.20;53.00
46932;DHT22;32670;51.464;11.964;2023-02-12T03:21:39;21.20;53.10
46932;DHT22;32670;51.464;11.964;2023-02-12T03:24:10;21.20;53.00
46932;DHT22;32670;51.464;11.964;2023-02-12T03:26:46;21.20;53.20
46932;DHT22;32670;51.464;11.964;2023-02-12T03:29:12;21.20;52.90
46932;DHT22;32670;51.464;11.964;2023-02-12T03:34:57;21.10;52.90
46932;DHT22;32670;51.464;11.964;2023-02-12T03:37:39;21.20;53.00
46932;DHT22;32670;51.464;11.964;2023-02-12T03:40:21;21.10;52.90
46932;DHT22;32670;51.464;11.964;2023-02-12T03:43:09;21.10;52.90
46932;DHT22;32670;51.464;11.964;2023-02-12T03:45:48;21.10;53.00
46932;DHT22;32670;51.464;11.964;2023-02-12T03:48:40;21.10;52.90
46932;DHT22;32670;51.464;11.964;2023-02-12T03:51:16;21.10;53.00
46932;DHT22;32670;51.464;11.964;2023-02-12T03:53:43;21.20;53.20
46932;DHT22;32670;51.464;11.964;2023-02-12T03:56:31;21.10;53.10
46932;DHT22;32670;51.464;11.964;2023-02-12T03:58:57;21.10;53.20
46932;DHT22;32670;51.464;11.964;2023-02-12T04:01:22;21.10;53.20
46932;DHT22;32670;51.464;11.964;2023-02-12T04:03:48;21.20;53.20
46932;DHT22;32670;51.464;11.964;2023-02-12T04:06:22;21.10;53.40
46932;DHT22;32670;51.464;11.964;2023-02-12T04:08:48;21.10;53.30
46932;DHT22;32670;51.464;11.964;2023-02-12T04:14:33;21.10;53.70
46932;DHT22;32670;51.464;11.964;2023-02-12T04:17:19;21.20;53.80
46932;DHT22;32670;51.464;11.964;2023-02-12T04:19:49;21.20;53.70
46932;DHT22;32670;51.464;11.964;2023-02-12T04:31:19;21.20;54.10
46932;DHT22;32670;51.464;11.964;2023-02-12T04:36:34;21.20;54.00
46932;DHT22;32670;51.464;11.964;2023-02-12T04:39:05;21.20;53.80
46932;DHT22;32670;51.464;11.964;2023-02-12T04:41:35;21.20;54.00
46932;DHT22;32670;51.464;11.964;2023-02-12T04:44:21;21.20;54.30
46932;DHT22;32670;51.464;11.964;2023-02-12T04:46:47;21.20;54.40
46932;DHT22;32670;51.464;11.964;2023-02-12T04:49:15;21.20;54.30
46932;DHT22;32670;51.464;11.964;2023-02-12T04:51:41;21.20;54.30
46932;DHT22;32670;51.464;11.964;2023-02-12T04:54:07;21.20;54.40
46932;DHT22;32670;51.464;11.964;2023-02-12T04:56:33;21.20;54.40
46932;DHT22;32670;51.464;11.964;2023-02-12T04:58:58;21.20;54.30
46932;DHT22;32670;51.464;11.964;2023-02-12T05:01:24;21.30;54.30
46932;DHT22;32670;51.464;11.964;2023-02-12T05:03:51;21.20;54.20
46932;DHT22;32670;51.464;11.964;2023-02-12T05:06:16;21.20;54.20
46932;DHT22;32670;51.464;11.964;2023-02-12T05:08:42;21.20;54.20
46932;DHT22;32670;51.464;11.964;2023-02-12T05:11:08;21.20;54.20
46932;DHT22;32670;51.464;11.964;2023-02-12T05:13:34;21.20;54.30
46932;DHT22;32670;51.464;11.964;2023-02-12T05:16:06;21.20;54.20
46932;DHT22;32670;51.464;11.964;2023-02-12T05:18:32;21.20;54.20
46932;DHT22;32670;51.464;11.964;2023-02-12T05:21:00;21.20;54.20
46932;DHT22;32670;51.464;11.964;2023-02-12T05:23:27;21.30;54.30
46932;DHT22;32670;51.464;11.964;2023-02-12T05:25:53;21.20;54.20
46932;DHT22;32670;51.464;11.964;2023-02-12T05:28:19;21.20;54.10
46932;DHT22;32670;51.464;11.964;2023-02-12T05:30:44;21.30;54.40
46932;DHT22;32670;51.464;11.964;2023-02-12T05:33:10;21.20;54.30
46932;DHT22;32670;51.464;11.964;2023-02-12T05:35:35;21.20;54.30
46932;DHT22;32670;51.464;11.964;2023-02-12T05:38:01;21.20;54.20
46932;DHT22;32670;51.464;11.964;2023-02-12T05:40:26;21.20;54.30
46932;DHT22;32670;51.464;11.964;2023-02-12T05:42:52;21.30;54.40
46932;DHT22;32670;51.464;11.964;2023-02-12T05:45:17;21.30;54.50
46932;DHT22;32670;51.464;11.964;2023-02-12T05:47:43;21.30;54.40
46932;DHT22;32670;51.464;11.964;2023-02-12T05:50:09;21.30;54.60
46932;DHT22;32670;51.464;11.964;2023-02-12T05:52:34;21.30;54.70
46932;DHT22;32670;51.464;11.964;2023-02-12T05:55:00;21.30;54.90
46932;DHT22;32670;51.464;11.964;2023-02-12T05:57:25;21.30;54.80
46932;DHT22;32670;51.464;11.964;2023-02-12T05:59:51;21.30;54.70
46932;DHT22;32670;51.464;11.964;2023-02-12T06:02:16;21.30;54.70
46932;DHT22;32670;51.464;11.964;2023-02-12T06:04:41;21.30;54.90
46932;DHT22;32670;51.464;11.964;2023-02-12T06:07:07;21.30;55.50
46932;DHT22;32670;51.464;11.964;2023-02-12T06:09:33;21.30;54.70
46932;DHT22;32670;51.464;11.964;2023-02-12T06:11:59;21.30;54.70
46932;DHT22;32670;51.464;11.964;2023-02-12T06:14:25;21.30;54.70
46932;DHT22;32670;51.464;11.964;2023-02-12T06:16:51;21.30;54.60
46932;DHT22;32670;51.464;11.964;2023-02-12T06:19:18;21.30;54.60
46932;DHT22;32670;51.464;11.964;2023-02-12T06:21:44;21.30;54.70
46932;DHT22;32670;51.464;11.964;2023-02-12T06:24:15;21.30;54.70
46932;DHT22;32670;51.464;11.964;2023-02-12T06:26:41;21.30;54.70
46932;DHT22;32670;51.464;11.964;2023-02-12T06:29:06;21.30;54.60
46932;DHT22;32670;51.464;11.964;2023-02-12T06:31:34;21.30;54.60
46932;DHT22;32670;51.464;11.964;2023-02-12T06:34:02;21.30;53.70
46932;DHT22;32670;51.464;11.964;2023-02-12T06:36:27;21.30;54.30
46932;DHT22;32670;51.464;11.964;2023-02-12T06:38:53;21.40;54.40
46932;DHT22;32670;51.464;11.964;2023-02-12T06:41:19;21.40;54.30
46932;DHT22;32670;51.464;11.964;2023-02-12T06:43:45;21.40;54.40
46932;DHT22;32670;51.464;11.964;2023-02-12T06:46:10;21.40;53.80
46932;DHT22;32670;51.464;11.964;2023-02-12T06:48:36;21.40;54.30
46932;DHT22;32670;51.464;11.964;2023-02-12T06:51:15;21.40;54.60
46932;DHT22;32670;51.464;11.964;2023-02-12T06:53:42;21.40;54.40
46932;DHT22;32670;51.464;11.964;2023-02-12T06:56:09;21.40;54.70
46932;DHT22;32670;51.464;11.964;2023-02-12T06:58:40;21.40;54.30
46932;DHT22;32670;51.464;11.964;2023-02-12T07:01:16;21.40;54.00
46932;DHT22;32670;51.464;11.964;2023-02-12T07:03:46;21.40;54.50
46932;DHT22;32670;51.464;11.964;2023-02-12T07:06:12;21.40;51.70
46932;DHT22;32670;51.464;11.964;2023-02-12T07:08:38;21.20;47.00
46932;DHT22;32670;51.464;11.964;2023-02-12T07:11:04;20.80;45.60
46932;DHT22;32670;51.464;11.964;2023-02-12T07:13:29;20.60;45.40
46932;DHT22;32670;51.464;11.964;2023-02-12T07:15:55;20.30;45.60
46932;DHT22;32670;51.464;11.964;2023-02-12T07:18:20;20.20;45.60
46932;DHT22;32670;51.464;11.964;2023-02-12T07:20:46;20.00;45.60
46932;DHT22;32670;51.464;11.964;2023-02-12T07:23:12;19.90;45.60
46932;DHT22;32670;51.464;11.964;2023-02-12T07:25:37;19.80;45.60
46932;DHT22;32670;51.464;11.964;2023-02-12T07:28:03;19.70;45.80
46932;DHT22;32670;51.464;11.964;2023-02-12T07:30:28;19.60;45.80
46932;DHT22;32670;51.464;11.964;2023-02-12T07:32:54;19.50;45.90
46932;DHT22;32670;51.464;11.964;2023-02-12T07:35:19;19.40;46.10
46932;DHT22;32670;51.464;11.964;2023-02-12T07:37:45;19.40;46.10
46932;DHT22;32670;51.464;11.964;2023-02-12T07:40:11;19.30;46.20
46932;DHT22;32670;51.464;11.964;2023-02-12T07:42:36;19.20;46.30
46932;DHT22;32670;51.464;11.964;2023-02-12T07:45:02;19.10;46.40
46932;DHT22;32670;51.464;11.964;2023-02-12T07:47:27;19.10;46.40
46932;DHT22;32670;51.464;11.964;2023-02-12T07:49:53;19.00;46.40
46932;DHT22;32670;51.464;11.964;2023-02-12T07:52:18;19.00;46.70
46932;DHT22;32670;51.464;11.964;2023-02-12T07:54:44;18.90;46.70
46932;DHT22;32670;51.464;11.964;2023-02-12T07:57:09;18.80;46.80
46932;DHT22;32670;51.464;11.964;2023-02-12T07:59:35;18.80;46.90
46932;DHT22;32670;51.464;11.964;2023-02-12T08:02:00;18.80;47.10
46932;DHT22;32670;51.464;11.964;2023-02-12T08:04:26;18.70;47.20
46932;DHT22;32670;51.464;11.964;2023-02-12T08:06:53;18.70;47.30
46932;DHT22;32670;51.464;11.964;2023-02-12T08:09:25;18.70;48.00
46932;DHT22;32670;51.464;11.964;2023-02-12T08:11:51;18.70;48.30
46932;DHT22;32670;51.464;11.964;2023-02-12T08:14:19;18.90;48.30
46932;DHT22;32670;51.464;11.964;2023-02-12T08:16:46;19.00;48.00
46932;DHT22;32670;51.464;11.964;2023-02-12T08:19:13;19.20;47.90
46932;DHT22;32670;51.464;11.964;2023-02-12T08:21:38;19.30;47.70
46932;DHT22;32670;51.464;11.964;2023-02-12T08:24:04;19.40;47.50
46932;DHT22;32670;51.464;11.964;2023-02-12T08:26:32;19.50;47.30
46932;DHT22;32670;51.464;11.964;2023-02-12T08:29:13;19.60;47.30
46932;DHT22;32670;51.464;11.964;2023-02-12T08:31:41;19.60;47.00
46932;DHT22;32670;51.464;11.964;2023-02-12T08:34:18;19.70;47.10
46932;DHT22;32670;51.464;11.964;2023-02-12T08:36:46;19.70;47.00
46932;DHT22;32670;51.464;11.964;2023-02-12T08:39:13;19.70;47.00
46932;DHT22;32670;51.464;11.964;2023-02-12T08:41:38;19.80;47.00
46932;DHT22;32670;51.464;11.964;2023-02-12T08:44:06;19.80;47.60
46932;DHT22;32670;51.464;11.964;2023-02-12T08:46:38;19.80;47.00
46932;DHT22;32670;51.464;11.964;2023-02-12T08:49:06;19.90;47.00
46932;DHT22;32670;51.464;11.964;2023-02-12T08:51:35;19.90;46.90
46932;DHT22;32670;51.464;11.964;2023-02-12T08:54:04;19.90;46.90
46932;DHT22;32670;51.464;11.964;2023-02-12T08:56:31;19.90;46.90
46932;DHT22;32670;51.464;11.964;2023-02-12T08:58:58;19.90;46.80
46932;DHT22;32670;51.464;11.964;2023-02-12T09:01:25;19.90;46.80
46932;DHT22;32670;51.464;11.964;2023-02-12T09:03:51;20.00;46.90
46932;DHT22;32670;51.464;11.964;2023-02-12T09:06:20;20.00;46.90
46932;DHT22;32670;51.464;11.964;2023-02-12T09:08:46;20.00;46.80
46932;DHT22;32670;51.464;11.964;2023-02-12T09:11:17;20.00;46.80
46932;DHT22;32670;51.464;11.964;2023-02-12T09:13:45;20.00;46.80
46932;DHT22;32670;51.464;11.964;2023-02-12T09:16:12;20.00;46.70
46932;DHT22;32670;51.464;11.964;2023-02-12T09:18:38;20.00;46.70
46932;DHT22;32670;51.464;11.964;2023-02-12T09:21:07;20.00;46.70
46932;DHT22;32670;51.464;11.964;2023-02-12T09:23:33;20.00;46.70
46932;DHT22;32670;51.464;11.964;2023-02-12T09:25:59;20.10;46.80
46932;DHT22;32670;51.464;11.964;2023-02-12T09:28:24;20.00;46.70
46932;DHT22;32670;51.464;11.964;2023-02-12T09:30:50;20.10;46.80
46932;DHT22;32670;51.464;11.964;2023-02-12T09:33:16;20.00;46.70
46932;DHT22;32670;51.464;11.964;2023-02-12T09:35:41;20.10;46.70
46932;DHT22;32670;51.464;11.964;2023-02-12T09:38:07;20.00;46.60
46932;DHT22;32670;51.464;11.964;2023-02-12T09:43:15;20.10;46.70
46932;DHT22;32670;51.464;11.964;2023-02-12T09:46:04;20.10;46.70
46932;DHT22;32670;51.464;11.964;2023-02-12T09:48:59;20.10;46.60
46932;DHT22;32670;51.464;11.964;2023-02-12T09:51:28;20.10;46.70
46932;DHT22;32670;51.464;11.964;2023-02-12T09:54:11;20.10;46.70
46932;DHT22;32670;51.464;11.964;2023-02-12T09:56:40;20.10;46.60
46932;DHT22;32670;51.464;11.964;2023-02-12T09:59:07;20.10;46.60
46932;DHT22;32670;51.464;11.964;2023-02-12T10:01:34;20.10;46.60
46932;DHT22;32670;51.464;11.964;2023-02-12T10:04:00;20.10;46.60
46932;DHT22;32670;51.464;11.964;2023-02-12T10:06:29;20.10;46.60
46932;DHT22;32670;51.464;11.964;2023-02-12T10:09:38;20.10;46.90
46932;DHT22;32670;51.464;11.964;2023-02-12T10:12:06;20.10;46.80
46932;DHT22;32670;51.464;11.964;2023-02-12T10:14:52;20.10;46.70
46932;DHT22;32670;51.464;11.964;2023-02-12T10:20:25;20.10;46.70
46932;DHT22;32670;51.464;11.964;2023-02-12T10:23:06;20.10;46.70
46932;DHT22;32670;51.464;11.964;2023-02-12T10:28:26;20.20;46.80
46932;DHT22;32670;51.464;11.964;2023-02-12T10:30:56;20.20;46.70
46932;DHT22;32670;51.464;11.964;2023-02-12T10:33:41;20.20;46.70
46932;DHT22;32670;51.464;11.964;2023-02-12T10:36:26;20.10;46.70
46932;DHT22;32670;51.464;11.964;2023-02-12T10:39:00;20.20;46.70
46932;DHT22;32670;51.464;11.964;2023-02-12T10:41:29;20.10;46.70
46932;DHT22;32670;51.464;11.964;2023-02-12T10:43:55;20.10;46.60
46932;DHT22;32670;51.464;11.964;2023-02-12T10:46:21;20.20;46.70
46932;DHT22;32670;51.464;11.964;2023-02-12T10:48:50;20.20;46.70
46932;DHT22;32670;51.464;11.964;2023-02-12T10:54:33;20.20;46.70
46932;DHT22;32670;51.464;11.964;2023-02-12T10:57:12;20.20;46.80
46932;DHT22;32670;51.464;11.964;2023-02-12T10:59:40;20.10;46.90
46932;DHT22;32670;51.464;11.964;2023-02-12T11:02:18;20.10;46.80
46932;DHT22;32670;51.464;11.964;2023-02-12T11:04:44;20.10;46.70
46932;DHT22;32670;51.464;11.964;2023-02-12T11:07:09;20.20;46.80
46932;DHT22;32670;51.464;11.964;2023-02-12T11:09:50;20.20;46.80
46932;DHT22;32670;51.464;11.964;2023-02-12T11:12:25;20.20;46.70
46932;DHT22;32670;51.464;11.964;2023-02-12T11:14:54;20.20;46.70
46932;DHT22;32670;51.464;11.964;2023-02-12T11:17:34;20.20;46.70
46932;DHT22;32670;51.464;11.964;2023-02-12T11:20:02;20.20;46.60
46932;DHT22;32670;51.464;11.964;2023-02-12T11:22:28;20.20;46.60
46932;DHT22;32670;51.464;11.964;2023-02-12T11:25:00;20.20;46.70
46932;DHT22;32670;51.464;11.964;2023-02-12T11:27:29;20.20;46.60
46932;DHT22;32670;51.464;11.964;2023-02-12T11:30:19;20.20;46.60
46932;DHT22;32670;51.464;11.964;2023-02-12T11:32:45;20.20;46.60
46932;DHT22;32670;51.464;11.964;2023-02-12T11:35:22;20.20;46.60
46932;DHT22;32670;51.464;11.964;2023-02-12T11:38:00;20.20;46.60
46932;DHT22;32670;51.464;11.964;2023-02-12T11:40:31;20.20;46.60
46932;DHT22;32670;51.464;11.964;2023-02-12T11:43:05;20.20;46.60
46932;DHT22;32670;51.464;11.964;2023-02-12T11:45:48;20.20;46.60
46932;DHT22;32670;51.464;11.964;2023-02-12T11:48:19;20.20;46.60
46932;DHT22;32670;51.464;11.964;2023-02-12T11:50:48;20.20;46.60
46932;DHT22;32670;51.464;11.964;2023-02-12T11:55:55;20.20;46.60
46932;DHT22;32670;51.464;11.964;2023-02-12T11:58:23;20.20;46.60
46932;DHT22;32670;51.464;11.964;2023-02-12T12:01:17;20.20;46.60
46932;DHT22;32670;51.464;11.964;2023-02-12T12:03:51;20.20;46.50
46932;DHT22;32670;51.464;11.964;2023-02-12T12:09:00;20.20;46.60
46932;DHT22;32670;51.464;11.964;2023-02-12T12:11:40;20.20;46.50
46932;DHT22;32670;51.464;11.964;2023-02-12T12:14:22;20.20;46.50
46932;DHT22;32670;51.464;11.964;2023-02-12T12:17:02;20.20;46.50
46932;DHT22;32670;51.464;11.964;2023-02-12T12:20:05;20.20;46.50
46932;DHT22;32670;51.464;11.964;2023-02-12T12:25:19;20.20;46.50
46932;DHT22;32670;51.464;11.964;2023-02-12T12:30:49;20.20;46.60
46932;DHT22;32670;51.464;11.964;2023-02-12T12:33:39;20.20;46.50
46932;DHT22;32670;51.464;11.964;2023-02-12T12:53:18;20.20;46.50
46932;DHT22;32670;51.464;11.964;2023-02-12T13:07:30;20.30;46.50
46932;DHT22;32670;51.464;11.964;2023-02-12T13:10:23;20.30;46.50
46932;DHT22;32670;51.464;11.964;2023-02-12T13:13:08;20.30;47.20
46932;DHT22;32670;51.464;11.964;2023-02-12T13:16:08;20.30;47.00
46932;DHT22;32670;51.464;11.964;2023-02-12T13:21:27;20.30;46.70
46932;DHT22;32670;51.464;11.964;2023-02-12T13:24:02;20.30;46.70
46932;DHT22;32670;51.464;11.964;2023-02-12T13:26:36;20.30;46.70
46932;DHT22;32670;51.464;11.964;2023-02-12T13:29:20;20.30;46.80
46932;DHT22;32670;51.464;11.964;2023-02-12T13:31:54;20.30;46.70
46932;DHT22;32670;51.464;11.964;2023-02-12T13:34:22;20.30;46.70
46932;DHT22;32670;51.464;11.964;2023-02-12T13:36:50;20.30;47.00
46932;DHT22;32670;51.464;11.964;2023-02-12T13:39:36;20.30;46.90
46932;DHT22;32670;51.464;11.964;2023-02-12T13:44:39;20.30;46.70
46932;DHT22;32670;51.464;11.964;2023-02-12T13:49:49;20.30;46.60
46932;DHT22;32670;51.464;11.964;2023-02-12T13:52:35;20.30;46.60
46932;DHT22;32670;51.464;11.964;2023-02-12T13:55:30;20.30;46.60
46932;DHT22;32670;51.464;11.964;2023-02-12T14:01:11;20.30;46.60
46932;DHT22;32670;51.464;11.964;2023-02-12T14:03:38;20.30;46.60
46932;DHT22;32670;51.464;11.964;2023-02-12T14:06:16;20.30;46.50
46932;DHT22;32670;51.464;11.964;2023-02-12T14:08:51;20.30;46.50
46932;DHT22;32670;51.464;11.964;2023-02-12T14:11:20;20.30;46.50
46932;DHT22;32670;51.464;11.964;2023-02-12T14:13:53;20.30;46.50
46932;DHT22;32670;51.464;11.964;2023-02-12T14:16:36;20.30;46.50
46932;DHT22;32670;51.464;11.964;2023-02-12T14:22:13;20.30;46.50
46932;DHT22;32670;51.464;11.964;2023-02-12T14:25:01;20.30;46.40
46932;DHT22;32670;51.464;11.964;2023-02-12T14:27:54;20.30;46.40
46932;DHT22;32670;51.464;11.964;2023-02-12T14:30:33;20.40;46.50
46932;DHT22;32670;51.464;11.964;2023-02-12T14:33:15;20.30;46.40
46932;DHT22;32670;51.464;11.964;2023-02-12T14:35:46;20.30;46.40
46932;DHT22;32670;51.464;11.964;2023-02-12T14:40:45;20.30;46.40
46932;DHT22;32670;51.464;11.964;2023-02-12T14:48:58;20.30;46.30
46932;DHT22;32670;51.464;11.964;2023-02-12T14:54:04;20.30;46.40
46932;DHT22;32670;51.464;11.964;2023-02-12T14:56:44;20.30;46.40
46932;DHT22;32670;51.464;11.964;2023-02-12T14:59:15;20.40;46.40
46932;DHT22;32670;51.464;11.964;2023-02-12T15:01:42;20.30;46.30
46932;DHT22;32670;51.464;11.964;2023-02-12T15:04:15;20.30;47.20
46932;DHT22;32670;51.464;11.964;2023-02-12T15:06:51;20.30;46.90
46932;DHT22;32670;51.464;11.964;2023-02-12T15:09:29;20.30;46.70
46932;DHT22;32670;51.464;11.964;2023-02-12T15:12:18;20.30;46.50
46932;DHT22;32670;51.464;11.964;2023-02-12T15:14:50;20.40;46.60
46932;DHT22;32670;51.464;11.964;2023-02-12T15:17:21;20.30;46.50
46932;DHT22;32670;51.464;11.964;2023-02-12T15:19:58;20.30;46.50
46932;DHT22;32670;51.464;11.964;2023-02-12T15:22:30;20.40;46.50
46932;DHT22;32670;51.464;11.964;2023-02-12T15:25:19;20.40;46.40
46932;DHT22;32670;51.464;11.964;2023-02-12T15:27:47;20.30;46.40
46932;DHT22;32670;51.464;11.964;2023-02-12T15:30:28;20.40;46.40
46932;DHT22;32670;51.464;11.964;2023-02-12T15:33:00;20.30;46.40
46932;DHT22;32670;51.464;11.964;2023-02-12T15:35:29;20.40;46.40
46932;DHT22;32670;51.464;11.964;2023-02-12T15:37:56;20.40;46.40
46932;DHT22;32670;51.464;11.964;2023-02-12T15:40:25;20.40;46.40
46932;DHT22;32670;51.464;11.964;2023-02-12T15:42:57;20.40;47.00
46932;DHT22;32670;51.464;11.964;2023-02-12T15:45:28;20.40;47.80
46932;DHT22;32670;51.464;11.964;2023-02-12T15:48:11;20.40;47.30
46932;DHT22;32670;51.464;11.964;2023-02-12T15:53:41;20.40;47.10
46932;DHT22;32670;51.464;11.964;2023-02-12T15:56:15;20.40;46.70
46932;DHT22;32670;51.464;11.964;2023-02-12T15:58:46;20.40;46.70
46932;DHT22;32670;51.464;11.964;2023-02-12T16:01:18;20.40;46.70
46932;DHT22;32670;51.464;11.964;2023-02-12T16:03:49;20.40;46.60
46932;DHT22;32670;51.464;11.964;2023-02-12T16:06:16;20.40;46.60
46932;DHT22;32670;51.464;11.964;2023-02-12T16:08:44;20.40;46.60
46932;DHT22;32670;51.464;11.964;2023-02-12T16:11:12;20.40;46.50
46932;DHT22;32670;51.464;11.964;2023-02-12T16:13:55;20.40;46.60
46932;DHT22;32670;51.464;11.964;2023-02-12T16:16:37;20.40;46.50
46932;DHT22;32670;51.464;11.964;2023-02-12T16:19:05;20.40;46.40
46932;DHT22;32670;51.464;11.964;2023-02-12T16:21:34;20.40;46.40
46932;DHT22;32670;51.464;11.964;2023-02-12T16:24:02;20.40;46.50
46932;DHT22;32670;51.464;11.964;2023-02-12T16:26:28;20.40;46.40
46932;DHT22;32670;51.464;11.964;2023-02-12T16:28:55;20.40;46.40
46932;DHT22;32670;51.464;11.964;2023-02-12T16:31:22;20.40;46.40
46932;DHT22;32670;51.464;11.964;2023-02-12T16:33:50;20.40;46.40
46932;DHT22;32670;51.464;11.964;2023-02-12T16:38:56;20.40;46.40
46932;DHT22;32670;51.464;11.964;2023-02-12T16:41:33;20.40;46.40
46932;DHT22;32670;51.464;11.964;2023-02-12T16:46:24;20.40;46.40
46932;DHT22;32670;51.464;11.964;2023-02-12T16:48:51;20.40;47.00
46932;DHT22;32670;51.464;11.964;2023-02-12T16:51:32;20.40;46.40
46932;DHT22;32670;51.464;11.964;2023-02-12T16:54:00;20.40;46.40
46932;DHT22;32670;51.464;11.964;2023-02-12T16:56:28;20.40;46.30
46932;DHT22;32670;51.464;11.964;2023-02-12T16:58:58;20.40;46.30
46932;DHT22;32670;51.464;11.964;2023-02-12T17:01:30;20.40;46.30
46932;DHT22;32670;51.464;11.964;2023-02-12T17:03:57;20.40;46.90
46932;DHT22;32670;51.464;11.964;2023-02-12T17:06:26;20.40;46.40
46932;DHT22;32670;51.464;11.964;2023-02-12T17:08:51;20.40;46.90
46932;DHT22;32670;51.464;11.964;2023-02-12T17:11:18;20.40;46.30
46932;DHT22;32670;51.464;11.964;2023-02-12T17:13:45;20.40;46.30
46932;DHT22;32670;51.464;11.964;2023-02-12T17:16:11;20.40;46.30
46932;DHT22;32670;51.464;11.964;2023-02-12T17:18:36;20.40;46.80
46932;DHT22;32670;51.464;11.964;2023-02-12T17:21:07;20.40;46.30
46932;DHT22;32670;51.464;11.964;2023-02-12T17:23:33;20.40;46.30
46932;DHT22;32670;51.464;11.964;2023-02-12T17:25:59;20.40;46.30
46932;DHT22;32670;51.464;11.964;2023-02-12T17:28:24;20.40;46.30
46932;DHT22;32670;51.464;11.964;2023-02-12T17:30:51;20.40;46.30